Time;durP1;ratioP1;P1;durP2;ratioP2;P2;SDS_P1;SDS_P2;PMS_P1;PMS_P2;Temp;Humidity;BMP_temperature;BMP_pressure;BME280_temperature;BME280_humidity;BME280_pressure;Samples;Min_cycle;Max_cycle;Signal;HPM_P1;HPM_P2
2021/11/18 00:02:20;;;;;;;21.52;10.18;;;;;;;7.00;100.00;102584.88;5237363;28;20068;-70
2021/11/18 00:04:54;;;;;;;20.88;9.18;;;;;;;7.00;100.00;102585.72;5235739;28;20047;-70
2021/11/18 00:07:26;;;;;;;22.75;9.35;;;;;;;6.97;100.00;102579.78;5234907;28;20066;-70
2021/11/18 00:09:57;;;;;;;21.52;9.40;;;;;;;6.97;100.00;102583.28;5237132;28;20028;-70
2021/11/18 00:12:28;;;;;;;21.75;9.43;;;;;;;6.97;100.00;102583.28;5237788;28;20040;-70
2021/11/18 00:14:59;;;;;;;20.42;9.63;;;;;;;6.94;100.00;102572.13;5237037;28;20024;-70
2021/11/18 00:17:31;;;;;;;23.02;10.90;;;;;;;6.92;100.00;102576.53;5235992;28;20035;-70
2021/11/18 00:20:07;;;;;;;26.38;10.27;;;;;;;7.00;100.00;102580.50;5233717;28;20589;-70
2021/11/18 00:22:38;;;;;;;23.58;10.60;;;;;;;6.92;100.00;102589.56;5236723;28;20040;-70
2021/11/18 00:25:12;;;;;;;23.20;10.52;;;;;;;6.91;100.00;102585.28;5235182;28;20029;-70
2021/11/18 00:27:43;;;;;;;20.52;10.18;;;;;;;6.92;100.00;102587.81;5235806;28;20403;-70
2021/11/18 00:30:15;;;;;;;27.38;10.70;;;;;;;6.90;100.00;102591.41;5235966;28;20045;-70
2021/11/18 00:32:48;;;;;;;24.15;10.38;;;;;;;6.88;100.00;102577.59;5234622;28;20060;-70
2021/11/18 00:35:26;;;;;;;22.98;9.85;;;;;;;6.94;100.00;102591.22;5237585;28;20124;-70
2021/11/18 00:37:58;;;;;;;22.05;10.35;;;;;;;6.81;100.00;102595.22;5235322;28;20033;-70
2021/11/18 00:40:40;;;;;;;25.42;10.80;;;;;;;6.87;100.00;102600.19;5235150;28;20033;-70
2021/11/18 00:43:13;;;;;;;24.13;10.38;;;;;;;6.78;100.00;102614.44;5234882;28;20479;-70
2021/11/18 00:45:45;;;;;;;26.10;11.98;;;;;;;6.78;100.00;102617.06;5236222;28;20477;-70
2021/11/18 00:48:17;;;;;;;25.25;11.40;;;;;;;6.80;100.00;102619.59;5235657;28;20074;-70
2021/11/18 00:50:55;;;;;;;26.30;11.00;;;;;;;6.83;100.00;102616.84;5234417;28;20033;-70
2021/11/18 00:53:28;;;;;;;22.75;11.30;;;;;;;6.78;100.00;102617.06;5235974;28;20550;-70
2021/11/18 00:55:59;;;;;;;27.20;11.65;;;;;;;6.83;100.00;102627.28;5236542;28;20544;-70
2021/11/18 00:58:31;;;;;;;23.13;11.10;;;;;;;6.81;100.00;102636.91;5240081;28;20029;-70
2021/11/18 01:01:04;;;;;;;25.20;11.20;;;;;;;6.81;100.00;102632.53;5238948;28;20032;-70
2021/11/18 01:03:36;;;;;;;25.25;11.57;;;;;;;6.78;100.00;102624.88;5238425;28;20796;-70
2021/11/18 01:06:07;;;;;;;26.38;11.40;;;;;;;6.79;100.00;102633.53;5240011;28;20421;-70
2021/11/18 01:08:39;;;;;;;20.50;10.25;;;;;;;6.78;100.00;102629.19;5238742;28;20037;-70
2021/11/18 01:11:15;;;;;;;19.55;10.93;;;;;;;6.83;100.00;102627.28;5238214;28;20047;-70
2021/11/18 01:13:48;;;;;;;23.92;11.07;;;;;;;6.79;100.00;102630.91;5239170;28;20534;-70
2021/11/18 01:16:22;;;;;;;;;;;;;;;7.32;100.00;102627.84;5239901;28;20043;-70
2021/11/18 01:18:54;;;;;;;;;;;;;;;7.31;100.00;102620.91;5241665;28;19913;-70
2021/11/18 01:21:25;;;;;;;25.60;11.70;;;;;;;6.80;100.00;102614.38;5240974;28;20436;-70
2021/11/18 01:23:57;;;;;;;19.33;11.02;;;;;;;6.77;100.00;102612.72;5240492;28;20040;-70
2021/11/18 01:26:28;;;;;;;25.35;11.70;;;;;;;6.75;100.00;102611.97;5239282;28;20021;-70
2021/11/18 01:29:01;;;;;;;30.42;12.35;;;;;;;6.76;100.00;102621.47;5239689;28;20276;-70
2021/11/18 01:31:33;;;;;;;31.42;12.15;;;;;;;6.76;100.00;102621.47;5240445;28;20033;-70
2021/11/18 01:34:04;;;;;;;31.27;12.73;;;;;;;6.73;100.00;102613.75;5240472;28;20040;-70
2021/11/18 01:36:36;;;;;;;27.73;12.63;;;;;;;6.73;100.00;102613.75;5239580;28;20033;-70
2021/11/18 01:39:08;;;;;;;34.33;12.38;;;;;;;6.73;100.00;102623.34;5238210;28;20021;-70
2021/11/18 01:41:41;;;;;;;28.77;12.52;;;;;;;6.70;100.00;102618.25;5241230;28;20549;-70
2021/11/18 01:44:37;;;;;;;25.85;12.25;;;;;;;6.76;100.00;102621.47;5238995;28;20025;-70
2021/11/18 01:47:10;;;;;;;27.45;12.85;;;;;;;6.72;100.00;102624.25;5238860;28;20161;-70
2021/11/18 01:49:42;;;;;;;;;;;;;;;7.20;100.00;102624.00;5239125;28;20029;-70
2021/11/18 01:52:18;;;;;;;24.02;11.40;;;;;;;6.79;100.00;102628.31;5240049;28;19923;-70
2021/11/18 01:54:51;;;;;;;32.08;12.25;;;;;;;6.67;100.00;102621.84;5240321;28;20770;-70
2021/11/18 01:57:27;;;;;;;27.67;12.23;;;;;;;6.74;100.00;102633.72;5240280;28;20045;-70
2021/11/18 01:59:59;;;;;;;25.73;12.13;;;;;;;6.65;100.00;102638.44;5239221;28;20100;-70
2021/11/18 02:02:30;;;;;;;27.17;12.15;;;;;;;6.64;100.00;102641.94;5239411;28;20507;-70
2021/11/18 02:05:10;;;;;;;29.83;12.55;;;;;;;6.76;100.00;102646.66;5239031;28;20021;-70
2021/11/18 02:07:44;;;;;;;33.45;12.77;;;;;;;6.64;100.00;102641.94;5237613;28;20033;-70
2021/11/18 02:10:19;;;;;;;26.85;12.82;;;;;;;6.68;100.00;102646.97;5236388;28;20151;-70
2021/11/18 02:12:53;;;;;;;34.10;13.18;;;;;;;6.66;100.00;102653.97;5239049;28;20040;-70
2021/11/18 02:15:41;;;;;;;29.40;12.90;;;;;;;6.65;100.00;102644.47;5238869;28;20140;-70
2021/11/18 02:18:22;;;;;;;31.08;12.90;;;;;;;6.66;100.00;102647.94;5237692;28;20033;-70
2021/11/18 02:21:09;;;;;;;32.17;13.82;;;;;;;6.73;100.00;102649.38;5238964;28;20017;-70
2021/11/18 02:23:46;;;;;;;33.20;12.93;;;;;;;6.62;100.00;102648.97;5239422;28;20544;-70
2021/11/18 02:26:19;;;;;;;31.73;13.30;;;;;;;6.58;100.00;102643.03;5238485;28;20021;-70
2021/11/18 02:28:54;;;;;;;33.40;14.05;;;;;;;6.60;100.00;102637.78;5238410;28;20068;-70
2021/11/18 02:31:30;;;;;;;30.65;13.82;;;;;;;6.58;100.00;102640.41;5238993;28;20033;-70
2021/11/18 02:34:06;;;;;;;27.92;13.38;;;;;;;6.56;100.00;102648.31;5237840;28;20108;-70
2021/11/18 02:36:38;;;;;;;32.60;13.82;;;;;;;6.53;100.00;102634.56;5237745;28;20029;-70
2021/11/18 02:39:11;;;;;;;30.00;14.63;;;;;;;6.52;100.00;102644.13;5239371;28;20064;-70
2021/11/18 02:41:43;;;;;;;30.15;13.48;;;;;;;6.52;100.00;102645.88;5237033;28;20091;-70
2021/11/18 02:44:14;;;;;;;31.57;14.17;;;;;;;6.53;100.00;102648.41;5237041;28;20025;-70
2021/11/18 02:46:46;;;;;;;28.98;13.13;;;;;;;6.54;100.00;102641.44;5238802;28;20276;-70
2021/11/18 02:49:17;;;;;;;26.40;13.75;;;;;;;6.61;100.00;102649.88;5237521;28;20080;-70
2021/11/18 02:51:48;;;;;;;27.73;13.45;;;;;;;6.63;100.00;102655.84;5237457;28;20055;-70
2021/11/18 02:54:20;;;;;;;34.70;14.38;;;;;;;6.65;100.00;102662.72;5235724;28;20045;-70
2021/11/18 02:56:52;;;;;;;30.77;14.07;;;;;;;6.71;100.00;102659.03;5237146;28;20095;-70
2021/11/18 02:59:24;;;;;;;29.93;14.40;;;;;;;6.73;100.00;102657.19;5238692;28;20029;-70
2021/11/18 03:01:55;;;;;;;33.05;14.38;;;;;;;6.75;100.00;102658.00;5237037;28;20279;-70
2021/11/18 03:04:27;;;;;;;30.08;14.43;;;;;;;6.76;100.00;102651.88;5236048;28;20086;-70
2021/11/18 03:07:00;;;;;;;30.23;13.50;;;;;;;6.75;100.00;102647.59;5237357;28;20029;-70
2021/11/18 03:09:32;;;;;;;33.05;14.55;;;;;;;6.76;100.00;102654.47;5238456;28;20698;-70
2021/11/18 03:12:04;;;;;;;35.90;15.48;;;;;;;6.77;100.00;102658.78;5238304;28;20556;-70
2021/11/18 03:14:36;;;;;;;30.05;14.65;;;;;;;6.70;100.00;102652.09;5235125;28;20483;-70
2021/11/18 03:17:08;;;;;;;37.33;15.65;;;;;;;6.74;100.00;102656.28;5236943;28;20036;-70
2021/11/18 03:19:39;;;;;;;33.92;15.05;;;;;;;6.76;100.00;102654.47;5234121;28;20037;-70
2021/11/18 03:22:11;;;;;;;39.47;16.10;;;;;;;6.77;100.00;102645.75;5237814;28;20025;-70
2021/11/18 03:24:43;;;;;;;34.60;14.80;;;;;;;6.79;100.00;102644.78;5239408;28;20033;-70
2021/11/18 03:27:14;;;;;;;32.33;14.85;;;;;;;6.79;100.00;102651.75;5237551;28;20028;-70
2021/11/18 03:29:45;;;;;;;34.00;15.13;;;;;;;6.81;100.00;102648.16;5237022;28;20025;-70
2021/11/18 03:32:17;;;;;;;36.58;15.10;;;;;;;6.84;100.00;102652.41;5238952;28;20471;-70
2021/11/18 03:34:48;;;;;;;33.88;14.50;;;;;;;6.85;100.00;102654.09;5237242;28;20040;-70
2021/11/18 03:37:19;;;;;;;31.05;14.82;;;;;;;6.83;100.00;102656.78;5236090;28;20029;-70
2021/11/18 03:39:51;;;;;;;33.15;15.45;;;;;;;6.85;100.00;102658.47;5236366;28;20056;-70
2021/11/18 03:42:22;;;;;;;36.45;17.30;;;;;;;6.85;100.00;102659.31;5236691;28;20029;-70
2021/11/18 03:44:53;;;;;;;31.70;14.27;;;;;;;6.89;100.00;102660.88;5236951;28;20021;-70
2021/11/18 03:47:25;;;;;;;31.55;14.52;;;;;;;6.89;100.00;102665.25;5237203;28;20040;-70
2021/11/18 03:49:57;;;;;;;39.17;16.45;;;;;;;6.88;100.00;102648.78;5237922;28;20510;-70
2021/11/18 03:52:28;;;;;;;32.95;15.15;;;;;;;6.86;100.00;102650.59;5237278;28;20028;-70
2021/11/18 03:54:59;;;;;;;33.65;15.60;;;;;;;6.88;100.00;102664.41;5238296;28;20472;-70
2021/11/18 03:57:31;;;;;;;32.97;15.93;;;;;;;6.88;100.00;102663.56;5235547;28;20531;-70
2021/11/18 04:00:07;;;;;;;38.38;16.58;;;;;;;6.94;100.00;102656.34;5236817;28;20032;-70
2021/11/18 04:02:38;;;;;;;36.80;16.08;;;;;;;6.88;100.00;102661.81;5237041;28;20403;-70
2021/11/18 04:05:10;;;;;;;29.40;14.98;;;;;;;6.90;100.00;102673.03;5237376;28;20025;-70
2021/11/18 04:07:42;;;;;;;36.42;15.00;;;;;;;6.91;100.00;102674.72;5237462;28;20313;-70
2021/11/18 04:10:19;;;;;;;35.30;16.20;;;;;;;6.98;100.00;102673.56;5236559;28;20450;-70
2021/11/18 04:12:50;;;;;;;33.25;15.68;;;;;;;6.91;100.00;102668.66;5237665;28;20112;-70
2021/11/18 04:15:24;;;;;;;35.13;15.43;;;;;;;6.93;100.00;102667.69;5235102;28;20033;-70
2021/11/18 04:17:56;;;;;;;31.58;15.80;;;;;;;6.92;100.00;102672.94;5236277;28;20032;-70
2021/11/18 04:20:28;;;;;;;32.13;15.63;;;;;;;6.94;100.00;102672.00;5236073;28;20025;-70
2021/11/18 04:23:02;;;;;;;42.23;17.07;;;;;;;6.95;100.00;102670.22;5236289;28;20410;-70
2021/11/18 04:25:36;;;;;;;33.13;15.10;;;;;;;6.95;100.00;102673.69;5235612;28;20851;-70
2021/11/18 04:28:07;;;;;;;33.03;15.82;;;;;;;6.93;100.00;102659.00;5237687;28;20703;-70
2021/11/18 04:30:50;;;;;;;35.92;15.57;;;;;;;7.08;100.00;102668.81;5237250;28;20172;-70
2021/11/18 04:33:22;;;;;;;33.63;15.40;;;;;;;6.97;100.00;102661.44;5236115;28;20494;-70
2021/11/18 04:35:54;;;;;;;39.60;15.85;;;;;;;6.95;100.00;102657.19;5236533;28;20079;-70
2021/11/18 04:38:27;;;;;;;35.58;16.38;;;;;;;6.99;100.00;102664.81;5235759;28;20033;-70
2021/11/18 04:40:58;;;;;;;32.40;14.95;;;;;;;7.00;100.00;102665.66;5235615;28;20399;-70
2021/11/18 04:43:30;;;;;;;36.30;15.07;;;;;;;7.03;100.00;102668.16;5236188;28;20037;-70
2021/11/18 04:46:02;;;;;;;37.45;15.90;;;;;;;7.01;100.00;102670.00;5236850;28;20025;-70
2021/11/18 04:48:34;;;;;;;38.47;15.95;;;;;;;7.03;100.00;102665.53;5235104;28;20168;-70
2021/11/18 04:51:08;;;;;;;36.08;15.82;;;;;;;7.03;100.00;102663.78;5236176;28;20441;-70
2021/11/18 04:53:40;;;;;;;38.35;15.88;;;;;;;7.01;100.00;102678.66;5236777;28;20080;-70
2021/11/18 04:56:14;;;;;;;30.02;15.13;;;;;;;7.04;100.00;102673.28;5237414;28;20509;-70
2021/11/18 04:58:45;;;;;;;34.55;15.57;;;;;;;6.98;100.00;102654.47;5235703;28;20056;-70
2021/11/18 05:01:17;;;;;;;36.50;15.65;;;;;;;7.00;100.00;102660.44;5235105;28;20021;-70
2021/11/18 05:03:48;;;;;;;33.80;15.27;;;;;;;7.03;100.00;102665.53;5235646;28;20032;-70
2021/11/18 05:06:20;;;;;;;33.05;16.00;;;;;;;7.02;100.00;102650.84;5234193;28;20052;-70
2021/11/18 05:08:52;;;;;;;36.97;15.32;;;;;;;7.03;100.00;102663.78;5235131;28;20154;-70
2021/11/18 05:11:24;;;;;;;36.25;15.38;;;;;;;7.03;100.00;102669.00;5235436;28;20486;-70
2021/11/18 05:13:56;;;;;;;35.92;15.45;;;;;;;7.04;100.00;102664.63;5235170;28;20029;-70
2021/11/18 05:16:28;;;;;;;37.10;16.05;;;;;;;7.00;100.00;102650.03;5235856;28;20028;-70
2021/11/18 05:19:00;;;;;;;37.13;15.63;;;;;;;6.96;100.00;102657.13;5236774;28;20029;-70
2021/11/18 05:21:32;;;;;;;38.15;15.98;;;;;;;6.97;100.00;102664.06;5235265;28;20044;-70
2021/11/18 05:24:05;;;;;;;37.17;15.32;;;;;;;7.01;100.00;102672.59;5236497;28;20775;-70
2021/11/18 05:26:37;;;;;;;38.50;16.35;;;;;;;6.95;100.00;102665.00;5235710;28;20284;-70
2021/11/18 05:29:08;;;;;;;41.53;15.88;;;;;;;6.90;100.00;102662.59;5236117;28;20441;-70
2021/11/18 05:31:40;;;;;;;32.72;15.60;;;;;;;6.90;100.00;102670.41;5237659;28;20025;-70
2021/11/18 05:34:11;;;;;;;37.15;14.98;;;;;;;6.87;100.00;102662.72;5235456;28;20029;-70
2021/11/18 05:36:42;;;;;;;41.22;15.73;;;;;;;6.85;100.00;102663.69;5233813;28;20557;-70
2021/11/18 05:39:14;;;;;;;33.58;14.68;;;;;;;6.89;100.00;102655.66;5236306;28;20028;-70
2021/11/18 05:41:45;;;;;;;33.03;15.27;;;;;;;6.88;100.00;102655.75;5236297;28;20033;-70
2021/11/18 05:44:16;;;;;;;35.00;16.45;;;;;;;6.85;100.00;102648.88;5236730;28;20025;-70
2021/11/18 05:46:48;;;;;;;33.83;14.20;;;;;;;6.83;100.00;102648.97;5239802;28;20021;-70
2021/11/18 05:49:19;;;;;;;33.08;14.32;;;;;;;6.83;100.00;102654.19;5240010;28;20549;-70
2021/11/18 05:51:51;;;;;;;34.67;14.82;;;;;;;6.81;100.00;102660.34;5240422;28;20029;-70
2021/11/18 05:54:23;;;;;;;35.67;15.10;;;;;;;6.80;100.00;102656.91;5237112;28;20318;-70
2021/11/18 05:56:54;;;;;;;32.20;14.48;;;;;;;6.81;100.00;102652.53;5237586;28;20059;-70
2021/11/18 05:59:25;;;;;;;34.30;15.02;;;;;;;6.80;100.00;102661.25;5239454;28;20039;-70
2021/11/18 06:01:57;;;;;;;33.58;15.60;;;;;;;6.82;100.00;102656.84;5239896;28;20551;-70
2021/11/18 06:04:28;;;;;;;30.92;14.35;;;;;;;6.78;100.00;102670.88;5238706;28;20475;-70
2021/11/18 06:07:00;;;;;;;33.75;13.88;;;;;;;6.82;100.00;102664.66;5239864;28;20037;-70
2021/11/18 06:09:31;;;;;;;29.65;13.73;;;;;;;6.82;100.00;102664.66;5221894;28;20037;-70
2021/11/18 06:12:03;;;;;;;36.08;14.32;;;;;;;6.83;100.00;102667.19;5240677;28;20075;-70
2021/11/18 06:14:34;;;;;;;38.65;16.13;;;;;;;6.81;100.00;102662.94;5237486;28;20838;-70
2021/11/18 06:17:06;;;;;;;28.20;13.93;;;;;;;6.89;100.00;102671.31;5240576;28;20376;-70
2021/11/18 06:19:37;;;;;;;32.53;14.23;;;;;;;6.92;100.00;102657.31;5220296;28;20036;-70
2021/11/18 06:22:09;;;;;;;42.70;15.50;;;;;;;6.93;100.00;102659.88;5238370;28;20037;-70
2021/11/18 06:24:40;;;;;;;30.20;13.50;;;;;;;6.94;100.00;102663.31;5238751;28;20056;-70
2021/11/18 06:27:12;;;;;;;35.75;14.65;;;;;;;6.98;100.00;102672.72;5239564;28;20107;-70
2021/11/18 06:29:43;;;;;;;33.95;13.52;;;;;;;6.91;100.00;102663.44;5238097;28;20040;-70
2021/11/18 06:32:15;;;;;;;31.58;13.50;;;;;;;6.99;100.00;102661.38;5237484;28;20193;-70
2021/11/18 06:34:46;;;;;;;33.22;14.63;;;;;;;6.98;100.00;102670.94;5238604;28;20120;-70
2021/11/18 06:37:19;;;;;;;38.75;15.10;;;;;;;6.99;100.00;102670.03;5235725;28;20029;-70
2021/11/18 06:39:50;;;;;;;29.70;14.85;;;;;;;7.01;100.00;102663.03;5237980;28;20040;-70
2021/11/18 06:42:21;;;;;;;42.42;15.50;;;;;;;7.01;100.00;102670.00;5238024;28;20029;-70
2021/11/18 06:44:52;;;;;;;39.28;15.68;;;;;;;7.03;100.00;102674.22;5238023;28;20031;-70
2021/11/18 06:47:24;;;;;;;37.92;16.40;;;;;;;7.05;100.00;102679.38;5237423;28;20029;-71
2021/11/18 06:49:55;;;;;;;37.65;16.13;;;;;;;7.01;100.00;102681.25;5237116;28;20033;-70
2021/11/18 06:52:26;;;;;;;38.50;15.32;;;;;;;7.04;100.00;102685.47;5238833;28;20081;-71
2021/11/18 06:54:58;;;;;;;35.33;15.13;;;;;;;7.07;100.00;102686.19;5237259;28;20541;-70
2021/11/18 06:57:29;;;;;;;38.08;15.60;;;;;;;7.07;100.00;102690.56;5238902;28;20723;-70
2021/11/18 07:00:01;;;;;;;31.10;14.80;;;;;;;7.08;100.00;102687.03;5236106;28;20183;-70
2021/11/18 07:02:32;;;;;;;33.85;14.85;;;;;;;7.09;100.00;102687.91;5236477;28;20025;-70
2021/11/18 07:05:05;;;;;;;33.70;13.88;;;;;;;7.08;100.00;102681.84;5237763;28;20025;-70
2021/11/18 07:07:37;;;;;;;32.45;13.15;;;;;;;7.11;100.00;102688.69;5235410;28;20033;-71
2021/11/18 07:10:09;;;;;;;30.35;13.25;;;;;;;7.12;100.00;102690.38;5236234;28;20493;-70
2021/11/18 07:12:41;;;;;;;33.95;12.80;;;;;;;7.12;100.00;102696.44;5236556;28;20037;-70
2021/11/18 07:15:13;;;;;;;26.25;12.38;;;;;;;7.16;100.00;102700.66;5235457;28;20029;-70
2021/11/18 07:17:44;;;;;;;30.75;12.48;;;;;;;7.10;100.00;102690.44;5237160;28;20064;-70
2021/11/18 07:20:15;;;;;;;30.50;11.98;;;;;;;7.15;100.00;102701.53;5238609;28;20366;-70
2021/11/18 07:22:47;;;;;;;25.10;11.50;;;;;;;7.12;100.00;102693.81;5236262;28;20112;-70
2021/11/18 07:25:22;;;;;;;27.70;11.77;;;;;;;7.15;100.00;102695.47;5237665;28;20020;-70
2021/11/18 07:27:53;;;;;;;26.38;12.38;;;;;;;7.12;100.00;102693.81;5237371;28;20429;-70
2021/11/18 07:30:25;;;;;;;24.70;11.73;;;;;;;7.12;100.00;102691.22;5236306;28;20120;-70
2021/11/18 07:32:57;;;;;;;25.70;11.15;;;;;;;7.06;100.00;102689.72;5233324;28;20590;-70
2021/11/18 07:35:29;;;;;;;27.73;12.10;;;;;;;7.10;100.00;102698.28;5234883;28;20033;-70
2021/11/18 07:38:02;;;;;;;29.70;12.07;;;;;;;7.12;100.00;102699.03;5237399;28;20112;-70
2021/11/18 07:40:34;;;;;;;29.75;11.50;;;;;;;7.16;100.00;102705.84;5237547;28;20107;-70
2021/11/18 07:43:07;;;;;;;22.67;11.75;;;;;;;7.17;100.00;102717.97;5236296;28;20040;-70
2021/11/18 07:45:39;;;;;;;29.95;11.73;;;;;;;7.20;100.00;102715.25;5237004;28;20028;-70
2021/11/18 07:48:10;;;;;;;26.33;11.93;;;;;;;7.22;100.00;102721.22;5237867;28;20044;-70
2021/11/18 07:50:42;;;;;;;25.15;11.90;;;;;;;7.22;100.00;102721.22;5236990;28;20036;-70
2021/11/18 07:53:14;;;;;;;18.93;10.67;;;;;;;7.26;100.00;102727.16;5236365;28;20392;-70
2021/11/18 07:55:47;;;;;;;29.63;11.43;;;;;;;7.27;100.00;102723.63;5237846;28;20048;-70
2021/11/18 07:58:19;;;;;;;25.38;10.07;;;;;;;7.34;100.00;102732.91;5236369;28;20070;-71
2021/11/18 08:00:51;;;;;;;26.37;11.13;;;;;;;7.35;100.00;102741.56;5236525;28;20143;-70
2021/11/18 08:03:24;;;;;;;25.92;11.32;;;;;;;7.35;100.00;102752.88;5236122;28;20025;-71
2021/11/18 08:05:57;;;;;;;26.65;11.23;;;;;;;7.39;100.00;102753.59;5235769;28;20034;-71
2021/11/18 08:08:28;;;;;;;28.50;11.33;;;;;;;7.42;100.00;102759.50;5238286;28;20506;-71
2021/11/18 08:10:59;;;;;;;26.67;10.27;;;;;;;7.45;100.00;102761.16;5237227;28;20426;-71
2021/11/18 08:13:31;;;;;;;27.38;10.25;;;;;;;7.49;100.00;102767.94;5237879;28;20036;-70
2021/11/18 08:16:02;;;;;;;24.70;10.93;;;;;;;7.51;100.00;102761.75;5235516;28;20032;-71
2021/11/18 08:18:33;;;;;;;23.08;11.20;;;;;;;7.55;100.00;102762.50;5236503;28;20475;-71
2021/11/18 08:21:05;;;;;;;20.30;10.35;;;;;;;7.60;100.00;102751.84;5235556;28;20497;-71
2021/11/18 08:23:37;;;;;;;24.52;10.98;;;;;;;7.60;100.00;102757.06;5237352;28;20025;-71
2021/11/18 08:26:12;;;;;;;30.20;11.13;;;;;;;7.65;100.00;102755.13;5234810;28;20040;-71
2021/11/18 08:28:44;;;;;;;22.17;10.57;;;;;;;7.62;100.00;102763.09;5232155;28;20136;-71
2021/11/18 08:31:16;;;;;;;26.73;11.32;;;;;;;7.66;100.00;102764.66;5232927;28;20036;-71
2021/11/18 08:33:50;;;;;;;25.20;10.70;;;;;;;7.72;100.00;102759.16;5230163;28;20116;-71
2021/11/18 08:36:22;;;;;;;25.27;10.13;;;;;;;7.70;100.00;102751.41;5233963;28;20028;-71
2021/11/18 08:38:55;;;;;;;28.00;11.40;;;;;;;7.71;100.00;102747.03;5236775;28;20031;-71
2021/11/18 08:41:26;;;;;;;28.30;10.68;;;;;;;7.73;100.00;102742.63;5238581;28;20041;-71
2021/11/18 08:43:58;;;;;;;30.30;10.98;;;;;;;7.74;100.00;102746.91;5237108;28;20036;-71
2021/11/18 08:46:30;;;;;;;30.13;11.13;;;;;;;7.76;100.00;102748.53;5237095;28;20030;-71
2021/11/18 08:49:02;;;;;;;28.80;11.68;;;;;;;7.78;100.00;102748.47;5236969;28;20041;-71
2021/11/18 08:51:33;;;;;;;29.55;11.65;;;;;;;7.79;100.00;102739.72;5235749;28;20080;-71
2021/11/18 08:54:08;;;;;;;28.05;10.65;;;;;;;7.82;100.00;102734.38;5237559;28;20487;-71
2021/11/18 08:56:41;;;;;;;28.17;10.73;;;;;;;7.81;100.00;102724.88;5235927;28;20029;-71
2021/11/18 08:59:13;;;;;;;32.35;11.20;;;;;;;7.84;100.00;102716.03;5235172;28;20033;-71
2021/11/18 09:01:54;;;;;;;34.33;11.18;;;;;;;7.84;100.00;102740.41;5236500;28;20033;-71
2021/11/18 09:04:26;;;;;;;29.65;11.60;;;;;;;7.82;100.00;102744.81;5237193;28;20566;-70
2021/11/18 09:06:58;;;;;;;27.95;11.48;;;;;;;7.83;100.00;102736.06;5235404;28;20049;-70
2021/11/18 09:09:30;;;;;;;29.05;10.85;;;;;;;7.76;100.00;102732.03;5236315;28;20372;-71
2021/11/18 09:12:06;;;;;;;24.33;10.30;;;;;;;7.82;100.00;102733.53;5235701;28;20040;-71
2021/11/18 09:14:38;;;;;;;24.58;11.82;;;;;;;7.80;100.00;102729.25;5236479;28;20375;-71
2021/11/18 09:17:11;;;;;;;23.48;11.02;;;;;;;7.82;100.00;102730.94;5236600;28;20028;-71
2021/11/18 09:19:43;;;;;;;34.50;11.40;;;;;;;7.83;100.00;102748.28;5236589;28;20090;-70
2021/11/18 09:22:15;;;;;;;27.00;10.80;;;;;;;7.81;100.00;102753.56;5237232;28;20108;-70
2021/11/18 09:24:55;;;;;;;27.27;11.48;;;;;;;7.91;100.00;102759.22;5237984;28;20040;-70
2021/11/18 09:27:45;;;;;;;27.67;11.60;;;;;;;8.02;100.00;102760.47;5239946;28;20277;-70
2021/11/18 09:30:23;;;;;;;31.05;12.15;;;;;;;8.01;100.00;102763.16;5237505;28;20029;-70
2021/11/18 09:32:56;;;;;;;32.13;12.88;;;;;;;7.94;100.00;102769.53;5239196;28;20021;-70
2021/11/18 09:35:32;;;;;;;31.33;12.05;;;;;;;7.94;100.00;102756.50;5238292;28;20029;-70
2021/11/18 09:38:05;;;;;;;26.05;11.05;;;;;;;8.09;100.00;102766.28;5239842;28;20114;-70
2021/11/18 09:40:49;;;;;;;29.23;10.93;;;;;;;8.24;100.00;102767.38;5235098;28;20037;-70
2021/11/18 09:44:01;;;;;;;29.13;11.82;;;;;;;8.38;100.00;102758.97;5238279;28;20021;-70
2021/11/18 09:47:09;;;;;;;28.10;12.07;;;;;;;8.49;100.00;102777.59;5238193;28;20033;-70
2021/11/18 09:50:13;;;;;;;32.70;11.73;;;;;;;8.51;100.00;102783.59;5238428;28;20042;-70
2021/11/18 09:52:55;;;;;;;22.65;11.75;;;;;;;8.53;100.00;102785.22;5238148;28;20096;-70
2021/11/18 09:55:37;;;;;;;24.05;10.65;;;;;;;8.56;100.00;102791.22;5236871;28;20479;-70
2021/11/18 09:58:33;;;;;;;28.92;11.48;;;;;;;8.61;100.00;102787.50;5237629;28;20502;-70
2021/11/18 10:01:49;;;;;;;24.13;11.65;;;;;;;8.86;100.00;102788.97;5240507;28;20487;-70
2021/11/18 10:04:25;;;;;;;29.50;10.88;;;;;;;8.76;100.00;102796.41;5238122;28;20053;-70
2021/11/18 10:07:00;;;;;;;29.10;10.75;;;;;;;8.89;100.00;102799.28;5237549;28;20022;-72
2021/11/18 10:09:44;;;;;;;28.55;10.73;;;;;;;9.03;100.00;102799.50;5218354;28;20025;-73
2021/11/18 10:12:22;;;;;;;;;;;;;;;9.43;100.00;102810.66;5229044;28;20017;-70
2021/11/18 10:15:13;;;;;;;26.80;10.02;;;;;;;9.31;100.00;102806.88;5239613;28;20015;-69
2021/11/18 10:17:52;;;;;;;24.63;10.93;;;;;;;9.26;100.00;102803.63;5238663;28;20055;-69
2021/11/18 10:20:37;;;;;;;27.00;10.25;;;;;;;9.45;100.00;102811.44;5239839;28;20059;-69
2021/11/18 10:23:13;;;;;;;27.05;10.35;;;;;;;9.32;100.00;102798.13;5240262;28;20162;-70
2021/11/18 10:25:49;;;;;;;23.48;10.25;;;;;;;9.47;100.00;102791.25;5236868;28;20025;-69
2021/11/18 10:28:23;;;;;;;27.13;10.45;;;;;;;9.48;100.00;102793.81;5237155;28;20039;-69
2021/11/18 10:31:26;;;;;;;24.05;9.77;;;;;;;9.79;100.00;102792.31;5236240;28;20025;-70
2021/11/18 10:34:16;;;;;;;27.63;10.17;;;;;;;9.88;100.00;102793.59;5238882;28;20497;-70
2021/11/18 10:37:00;;;;;;;24.92;9.10;;;;;;;9.89;100.00;102787.47;5237792;28;20127;-69
2021/11/18 10:39:50;;;;;;;;;;;;;;;10.31;100.00;102786.19;5225947;28;21038;-70
2021/11/18 10:42:39;;;;;;;20.95;9.40;;;;;;;10.13;100.00;102777.50;5236859;28;20306;-70
2021/11/18 10:45:24;;;;;;;25.80;9.23;;;;;;;10.16;100.00;102772.94;5235744;28;20025;-70
2021/11/18 10:48:00;;;;;;;19.83;8.13;;;;;;;10.17;100.00;102772.00;5236821;28;20089;-70
2021/11/18 10:50:51;;;;;;;20.80;8.32;;;;;;;10.43;100.00;102756.72;5238080;28;20117;-70
2021/11/18 10:53:26;;;;;;;22.77;8.68;;;;;;;10.45;100.00;102760.97;5239398;28;20085;-70
2021/11/18 10:56:16;;;;;;;23.92;8.75;;;;;;;10.65;100.00;102762.50;5240419;28;20132;-70
2021/11/18 10:59:04;;;;;;;24.23;8.00;;;;;;;10.77;100.00;102757.50;5242352;28;20024;-70
2021/11/18 11:01:39;;;;;;;22.30;8.23;;;;;;;10.70;100.00;102755.22;5235312;28;20028;-70
2021/11/18 11:04:31;;;;;;;26.75;8.60;;;;;;;10.70;100.00;102754.38;5239018;28;20379;-70
2021/11/18 11:07:04;;;;;;;25.88;8.15;;;;;;;10.76;100.00;102761.91;5239522;28;20467;-70
2021/11/18 11:09:43;;;;;;;21.83;7.87;;;;;;;10.83;100.00;102765.03;5237436;28;20028;-70
2021/11/18 11:12:17;;;;;;;23.38;8.40;;;;;;;10.83;100.00;102760.63;5235423;28;20391;-70
2021/11/18 11:15:39;;;;;;;20.95;7.35;;;;;;;11.11;100.00;102757.31;5236604;28;20421;-69
2021/11/18 11:18:32;;;;;;;19.30;6.43;;;;;;;11.03;100.00;102741.16;5197639;28;20377;-70
2021/11/18 11:21:41;;;;;;;16.70;7.43;;;;;;;11.17;100.00;102741.25;5237312;28;20067;-69
2021/11/18 11:24:46;;;;;;;19.23;7.60;;;;;;;11.26;100.00;102734.63;5235796;28;20037;-70
2021/11/18 11:27:20;;;;;;;25.15;8.43;;;;;;;11.12;100.00;102742.41;5235913;28;20040;-69
2021/11/18 11:29:58;;;;;;;21.15;7.10;;;;;;;11.08;100.00;102733.03;5238489;28;20025;-69
2021/11/18 11:32:47;;;;;;;20.55;7.85;;;;;;;11.13;100.00;102723.97;5238146;28;20044;-70
2021/11/18 11:35:39;;;;;;;23.65;7.20;;;;;;;11.22;100.00;102730.47;5239775;28;20072;-69
2021/11/18 11:38:19;;;;;;;21.23;6.75;;;;;;;11.33;100.00;102732.50;5238358;28;20044;-70
2021/11/18 11:41:04;;;;;;;25.33;7.45;;;;;;;11.41;100.00;102741.59;5237058;28;20025;-70
2021/11/18 11:44:06;;;;;;;23.23;7.78;;;;;;;11.56;100.00;102741.66;5236074;28;20120;-70
2021/11/18 11:46:40;;;;;;;19.23;7.28;;;;;;;11.45;100.00;102737.03;5237131;28;20044;-70
2021/11/18 11:49:14;;;;;;;16.77;6.72;;;;;;;11.52;100.00;102734.88;5237695;28;20076;-70